createdAt,value
2022-12-05T00:00:16.316Z,102236.72
2022-12-05T00:01:26.223Z,102248.05
2022-12-05T00:02:30.334Z,102240.20
2022-12-05T00:03:34.416Z,102247.15
2022-12-05T00:04:38.592Z,102232.34
2022-12-05T00:05:43.052Z,102236.72
2022-12-05T00:06:47.079Z,102233.25
2022-12-05T00:07:51.044Z,102241.06
2022-12-05T00:08:55.880Z,102233.22
2022-12-05T00:10:00.224Z,102234.98
2022-12-05T00:11:04.721Z,102248.02
2022-12-05T00:12:08.625Z,102234.02
2022-12-05T00:13:12.678Z,102241.84
2022-12-05T00:14:16.725Z,102241.84
2022-12-05T00:15:20.692Z,102232.38
2022-12-05T00:16:26.943Z,102228.88
2022-12-05T00:17:33.394Z,102227.13
2022-12-05T00:18:37.803Z,102227.13
2022-12-05T00:19:41.989Z,102232.31
2022-12-05T00:20:49.868Z,102232.31
2022-12-05T00:21:53.903Z,102232.34
2022-12-05T00:22:57.937Z,102233.18
2022-12-05T00:24:05.834Z,102234.02
2022-12-05T00:25:10.480Z,102229.68
2022-12-05T00:26:15.383Z,102235.79
2022-12-05T00:27:19.493Z,102240.13
2022-12-05T00:28:23.521Z,102229.68
2022-12-05T00:29:27.650Z,102240.97
2022-12-05T00:30:31.759Z,102239.20
2022-12-05T00:31:36.177Z,102253.13
2022-12-05T00:32:40.280Z,102232.28
2022-12-05T00:33:45.174Z,102238.36
2022-12-05T00:34:49.220Z,102237.50
2022-12-05T00:35:53.273Z,102237.50
2022-12-05T00:36:57.321Z,102241.00
2022-12-05T00:38:01.371Z,102241.00
2022-12-05T00:39:08.543Z,102246.18
2022-12-05T00:40:12.947Z,102235.76
2022-12-05T00:41:20.345Z,102151.81
2022-12-05T00:42:24.416Z,102234.95
2022-12-05T00:43:28.532Z,102232.31
2022-12-05T00:44:32.640Z,102233.98
2022-12-05T00:45:36.738Z,102233.98
2022-12-05T00:46:41.587Z,102236.59
2022-12-05T00:47:45.632Z,102220.95
2022-12-05T00:48:50.126Z,102236.56
2022-12-05T00:49:54.090Z,102217.48
2022-12-05T00:51:06.388Z,102226.17
2022-12-05T00:52:10.399Z,102220.95
2022-12-05T00:53:14.443Z,102224.47
2022-12-05T00:54:18.630Z,102223.56
2022-12-05T00:55:22.549Z,102226.14
2022-12-05T00:56:28.375Z,102225.30
2022-12-05T00:57:33.006Z,102226.14
2022-12-05T00:58:37.658Z,102218.32
2022-12-05T00:59:44.607Z,102214.85
2022-12-05T01:00:48.733Z,102215.69
2022-12-05T01:01:53.083Z,102213.95
2022-12-05T01:02:57.186Z,102210.51
2022-12-05T01:04:04.340Z,102208.73
2022-12-05T01:05:08.569Z,102210.44
2022-12-05T01:06:14.737Z,102207.91
2022-12-05T01:07:18.621Z,102207.00
2022-12-05T01:08:22.592Z,102207.88
2022-12-05T01:09:27.035Z,102202.69
2022-12-05T01:10:31.122Z,102199.22
2022-12-05T01:11:40.916Z,102200.05
2022-12-05T01:12:41.198Z,102200.05
2022-12-05T01:13:45.983Z,102194.81
2022-12-05T01:14:49.917Z,102197.42
2022-12-05T01:15:54.098Z,102197.42
2022-12-05T01:16:58.172Z,102194.81
2022-12-05T01:18:02.139Z,102186.06
2022-12-05T01:19:14.871Z,102193.05
2022-12-05T01:20:18.963Z,102191.27
2022-12-05T01:21:23.243Z,102193.02
2022-12-05T01:22:27.258Z,102195.58
2022-12-05T01:23:31.207Z,102190.38
2022-12-05T01:24:35.250Z,102193.88
2022-12-05T01:25:43.404Z,102184.36
2022-12-05T01:26:48.364Z,102192.98
2022-12-05T01:27:52.321Z,102179.09
2022-12-05T01:28:56.339Z,102184.33
2022-12-05T01:30:00.418Z,102184.33
2022-12-05T01:31:10.206Z,102184.36
2022-12-05T01:32:14.200Z,102184.36
2022-12-05T01:33:18.875Z,102186.97
2022-12-05T01:34:23.202Z,102184.36
2022-12-05T01:35:27.200Z,102194.75
2022-12-05T01:36:31.980Z,102188.67
2022-12-05T01:37:35.857Z,102186.03
2022-12-05T01:38:41.576Z,102185.16
2022-12-05T01:39:45.464Z,102189.50
2022-12-05T01:40:49.406Z,102183.43
2022-12-05T01:41:53.473Z,102169.54
2022-12-05T01:42:57.624Z,102179.95
2022-12-05T01:44:07.060Z,102177.31
2022-12-05T01:45:16.996Z,102178.19
2022-12-05T01:46:21.200Z,102180.72
2022-12-05T01:47:27.581Z,102178.19
2022-12-05T01:48:36.359Z,102171.21
2022-12-05T01:49:42.874Z,102169.47
2022-12-05T01:50:48.850Z,102172.98
2022-12-05T01:51:58.540Z,102171.21
2022-12-05T01:53:04.221Z,102177.28
2022-12-05T01:54:10.526Z,102171.17
2022-12-05T01:55:17.649Z,102172.95
2022-12-05T01:56:21.801Z,102167.70
2022-12-05T01:57:26.405Z,102172.87
2022-12-05T01:58:33.438Z,102169.47
2022-12-05T01:59:40.410Z,102163.40
2022-12-05T02:00:44.879Z,102172.87
2022-12-05T02:01:49.324Z,102175.52
2022-12-05T02:03:02.111Z,102174.65
2022-12-05T02:04:07.309Z,102172.05
2022-12-05T02:05:17.324Z,102172.87
2022-12-05T02:06:22.903Z,102184.96
2022-12-05T02:07:27.430Z,102167.61
2022-12-05T02:08:31.929Z,102174.55
2022-12-05T02:09:36.248Z,102167.64
2022-12-05T02:10:46.144Z,102167.64
2022-12-05T02:11:55.910Z,102175.45
2022-12-05T02:13:02.981Z,102176.31
2022-12-05T02:14:18.969Z,102171.98
2022-12-05T02:15:26.064Z,102177.16
2022-12-05T02:16:42.343Z,102173.68
2022-12-05T02:18:01.426Z,102172.84
2022-12-05T02:19:37.166Z,102164.12
2022-12-05T02:21:12.502Z,102165.87
2022-12-05T02:22:43.223Z,102165.87
2022-12-05T02:23:50.185Z,102162.26
2022-12-05T02:25:02.355Z,102164.86
2022-12-05T02:27:46.118Z,102172.70
2022-12-05T02:29:15.210Z,102166.67
2022-12-05T02:30:24.727Z,102166.67
2022-12-05T02:31:31.763Z,102161.39
2022-12-05T02:32:38.735Z,102158.82
2022-12-05T02:33:48.218Z,102168.41
2022-12-05T02:35:00.329Z,102158.82
2022-12-05T02:36:18.974Z,102170.14
2022-12-05T02:37:34.642Z,102158.82
2022-12-05T02:38:50.433Z,102156.25
2022-12-05T02:39:57.711Z,102153.58
2022-12-05T02:41:16.911Z,102163.13
2022-12-05T02:42:38.592Z,102157.78
2022-12-05T02:43:45.449Z,102152.64
2022-12-05T02:44:52.408Z,102156.98
2022-12-05T02:45:59.356Z,102162.19
2022-12-05T02:47:06.455Z,102155.25
2022-12-05T02:48:13.573Z,102150.08
2022-12-05T02:49:20.468Z,102150.08
2022-12-05T02:50:27.412Z,102164.80
2022-12-05T02:51:34.257Z,101840.77
2022-12-05T02:52:39.430Z,102162.16
2022-12-05T02:53:45.932Z,102156.98
2022-12-05T02:54:52.882Z,102158.75
2022-12-05T02:55:58.197Z,102166.56
2022-12-05T02:57:03.071Z,102157.02
2022-12-05T02:58:10.010Z,102160.45
2022-12-05T02:59:18.466Z,102160.45
2022-12-05T03:00:20.208Z,102158.75
2022-12-05T03:01:26.962Z,102149.24
2022-12-05T03:02:34.084Z,102150.98
2022-12-05T03:03:38.154Z,102150.98
2022-12-05T03:04:42.095Z,102152.67
2022-12-05T03:05:58.139Z,102159.59
2022-12-05T03:07:05.158Z,102151.74
2022-12-05T03:08:12.099Z,102151.81
2022-12-05T03:09:27.613Z,102155.25
2022-12-05T03:10:33.673Z,102155.21
2022-12-05T03:11:49.433Z,102154.34
2022-12-05T03:12:59.031Z,102156.12
2022-12-05T03:14:05.942Z,102155.21
2022-12-05T03:15:12.819Z,102156.91
2022-12-05T03:16:20.115Z,102158.72
2022-12-05T03:17:27.091Z,102158.75
2022-12-05T03:18:34.042Z,102163.96
2022-12-05T03:19:56.599Z,102156.15
2022-12-05T03:21:06.667Z,102160.45
2022-12-05T03:22:16.471Z,102167.39
2022-12-05T03:23:35.433Z,102164.86
2022-12-05T03:24:41.827Z,102169.16
2022-12-05T03:25:48.776Z,102180.41
2022-12-05T03:27:04.506Z,102170.00
2022-12-05T03:28:17.327Z,102171.66
2022-12-05T03:29:44.930Z,102171.73
2022-12-05T03:30:50.919Z,102171.73
2022-12-05T03:32:12.672Z,102162.19
2022-12-05T03:33:19.644Z,102163.06
2022-12-05T03:35:55.151Z,102159.59
2022-12-05T03:37:02.201Z,102159.59
2022-12-05T03:38:12.054Z,102160.45
2022-12-05T03:39:25.064Z,102156.19
2022-12-05T03:40:46.829Z,102160.48
2022-12-05T03:42:05.492Z,102161.36
2022-12-05T03:43:18.330Z,102165.66
2022-12-05T03:44:25.284Z,102166.53
2022-12-05T03:45:35.062Z,102169.92
2022-12-05T03:46:43.731Z,102169.97
2022-12-05T03:47:53.648Z,102165.66
2022-12-05T03:49:06.331Z,102167.39
2022-12-05T03:50:19.243Z,102169.16
2022-12-05T03:51:26.221Z,102162.16
2022-12-05T03:52:41.546Z,102160.42
2022-12-05T03:53:53.858Z,102160.42
2022-12-05T03:55:03.620Z,102167.36
2022-12-05T03:56:11.000Z,102163.86
2022-12-05T03:57:26.565Z,102157.81
2022-12-05T03:58:33.567Z,102157.81
2022-12-05T03:59:40.421Z,102161.32
2022-12-05T04:00:47.375Z,102167.36
2022-12-05T04:01:53.672Z,102167.36
2022-12-05T04:03:06.350Z,102163.92
2022-12-05T04:04:13.313Z,102169.13
2022-12-05T04:05:23.137Z,102165.66
2022-12-05T04:06:32.879Z,102170.87
2022-12-05T04:07:39.903Z,102170.87
2022-12-05T04:08:49.705Z,102175.17
2022-12-05T04:09:59.604Z,102163.92
2022-12-05T04:11:06.935Z,102172.60
2022-12-05T04:12:13.877Z,102173.47
2022-12-05T04:13:26.849Z,102173.47
2022-12-05T04:14:36.720Z,102161.36
2022-12-05T04:15:40.678Z,102161.36
2022-12-05T04:16:54.072Z,102161.39
2022-12-05T04:18:01.034Z,102163.16
2022-12-05T04:19:10.923Z,102165.83
2022-12-05T04:20:20.819Z,102159.77
2022-12-05T04:21:27.722Z,102154.55
2022-12-05T04:22:32.511Z,102162.40
2022-12-05T04:23:36.525Z,102159.77
2022-12-05T04:24:40.625Z,102157.16
2022-12-05T04:25:50.225Z,102155.35
2022-12-05T04:27:06.317Z,102155.42
2022-12-05T04:28:28.464Z,102154.52
2022-12-05T04:29:35.416Z,102154.52
2022-12-05T04:30:45.350Z,102142.41
2022-12-05T04:31:52.432Z,102138.09
2022-12-05T04:33:02.288Z,102149.41
2022-12-05T04:34:09.280Z,102148.58
2022-12-05T04:35:16.246Z,102151.17
2022-12-05T04:36:26.204Z,102151.17
2022-12-05T04:37:33.142Z,102158.02
2022-12-05T04:38:46.097Z,102156.36
2022-12-05T04:39:59.294Z,102160.66
2022-12-05T04:41:06.836Z,102145.07
2022-12-05T04:42:16.737Z,102155.48
2022-12-05T04:43:23.104Z,102144.20
2022-12-05T04:44:32.523Z,102157.22
2022-12-05T04:45:39.539Z,102135.59
2022-12-05T04:46:46.360Z,102155.48
2022-12-05T04:47:53.314Z,102143.30
2022-12-05T04:49:00.251Z,102148.58
2022-12-05T04:50:06.576Z,102138.96
2022-12-05T04:51:13.607Z,102136.36
2022-12-05T04:52:17.741Z,102136.36
2022-12-05T04:53:24.508Z,102138.06
2022-12-05T04:54:40.342Z,102147.67
2022-12-05T04:55:47.359Z,102154.55
2022-12-05T04:56:58.129Z,102145.07
2022-12-05T04:58:14.786Z,102132.95
2022-12-05T04:59:19.087Z,102136.42
2022-12-05T05:00:23.189Z,102136.42
2022-12-05T05:01:33.100Z,102142.44
2022-12-05T05:02:49.230Z,102130.28
2022-12-05T05:04:08.336Z,102142.41
2022-12-05T05:05:14.451Z,102146.70
2022-12-05T05:06:19.073Z,102138.06
2022-12-05T05:07:23.162Z,102131.16
2022-12-05T05:08:29.662Z,102138.93
2022-12-05T05:09:33.811Z,102134.49
2022-12-05T05:10:43.924Z,102131.09
2022-12-05T05:11:48.498Z,102133.69
2022-12-05T05:12:52.567Z,102133.72
2022-12-05T05:13:56.837Z,102130.25
2022-12-05T05:15:00.812Z,102132.82
2022-12-05T05:16:08.679Z,102120.67
2022-12-05T05:17:12.756Z,102138.86
2022-12-05T05:18:16.792Z,102127.58
2022-12-05T05:19:20.816Z,102138.90
2022-12-05T05:20:24.953Z,102133.69
2022-12-05T05:21:35.302Z,102120.67
2022-12-05T05:22:39.266Z,102133.66
2022-12-05T05:23:43.214Z,102131.02
2022-12-05T05:24:47.261Z,102134.49
2022-12-05T05:25:56.950Z,102124.11
2022-12-05T05:27:00.906Z,102118.91
2022-12-05T05:28:05.194Z,102149.28
2022-12-05T05:29:10.384Z,102123.24
2022-12-05T05:30:14.555Z,102139.70
2022-12-05T05:31:20.370Z,102146.57
2022-12-05T05:32:24.307Z,102135.33
2022-12-05T05:33:28.367Z,102130.09
2022-12-05T05:34:32.481Z,102133.52
2022-12-05T05:35:39.446Z,102139.66
2022-12-05T05:36:43.964Z,102133.59
2022-12-05T05:37:48.468Z,102127.58
2022-12-05T05:38:55.282Z,102128.45
2022-12-05T05:39:59.719Z,102126.69
2022-12-05T05:41:04.770Z,102134.45
2022-12-05T05:42:08.747Z,102137.93
2022-12-05T05:43:12.784Z,102135.33
2022-12-05T05:44:16.854Z,102134.49
2022-12-05T05:45:21.106Z,102144.04
2022-12-05T05:46:28.363Z,102137.09
2022-12-05T05:47:32.407Z,102150.98
2022-12-05T05:48:36.546Z,102153.55
2022-12-05T05:49:40.524Z,102150.04
2022-12-05T05:50:44.919Z,102149.21
2022-12-05T05:51:55.097Z,102193.99
2022-12-05T05:52:59.139Z,102193.99
2022-12-05T05:54:04.870Z,102151.74
2022-12-05T05:55:10.947Z,102150.11
2022-12-05T05:56:21.395Z,102150.98
2022-12-05T05:57:23.127Z,102154.48
2022-12-05T05:58:27.047Z,102164.89
2022-12-05T05:59:31.105Z,102155.35
2022-12-05T06:00:35.235Z,102164.89
2022-12-05T06:01:39.186Z,102171.88
2022-12-05T06:02:43.217Z,102157.12
2022-12-05T06:03:48.064Z,102162.33
2022-12-05T06:04:52.161Z,102159.77
2022-12-05T06:06:00.489Z,102166.70
2022-12-05T06:07:04.480Z,102166.70
2022-12-05T06:08:08.650Z,102153.65
2022-12-05T06:09:12.798Z,102153.65
2022-12-05T06:10:16.964Z,102157.12
2022-12-05T06:11:26.320Z,102157.16
2022-12-05T06:12:29.347Z,102156.28
2022-12-05T06:13:33.477Z,102152.88
2022-12-05T06:14:37.577Z,102170.20
2022-12-05T06:15:41.546Z,102164.20
2022-12-05T06:16:45.620Z,102168.50
2022-12-05T06:17:49.628Z,102163.30
2022-12-05T06:18:54.195Z,102171.91
2022-12-05T06:19:58.498Z,102158.89
2022-12-05T06:21:02.977Z,102160.66
2022-12-05T06:22:07.070Z,102169.27
2022-12-05T06:23:11.120Z,102159.69
2022-12-05T06:24:15.164Z,102171.04
2022-12-05T06:25:20.641Z,102156.32
2022-12-05T06:26:24.808Z,102165.03
2022-12-05T06:27:30.821Z,102158.95
2022-12-05T06:28:35.084Z,102150.28
2022-12-05T06:29:39.169Z,102158.16
2022-12-05T06:30:43.172Z,102162.40
2022-12-05T06:31:47.444Z,102147.77
2022-12-05T06:32:51.497Z,102151.18
2022-12-05T06:33:55.434Z,102146.00
2022-12-05T06:34:59.329Z,102146.00
2022-12-05T06:36:06.609Z,102144.27
2022-12-05T06:37:10.612Z,102144.27
2022-12-05T06:38:15.121Z,102150.38
2022-12-05T06:39:19.055Z,102153.81
2022-12-05T06:40:23.217Z,102159.02
2022-12-05T06:41:28.106Z,102140.83
2022-12-05T06:42:32.411Z,102146.06
2022-12-05T06:43:36.361Z,102155.58
2022-12-05T06:44:40.429Z,102156.39
2022-12-05T06:45:44.454Z,102149.48
2022-12-05T06:46:49.143Z,102155.55
2022-12-05T06:47:53.963Z,102165.97
2022-12-05T06:48:59.607Z,102146.00
2022-12-05T06:50:04.125Z,102162.53
2022-12-05T06:51:11.144Z,102162.59
2022-12-05T06:52:15.225Z,102151.27
2022-12-05T06:53:20.027Z,102150.38
2022-12-05T06:54:24.727Z,102148.70
2022-12-05T06:55:28.692Z,102105.89
2022-12-05T06:56:32.718Z,102142.72
2022-12-05T06:57:36.776Z,102140.14
2022-12-05T06:58:42.121Z,102147.95
2022-12-05T06:59:46.163Z,102148.83
2022-12-05T07:00:50.253Z,102145.33
2022-12-05T07:01:54.364Z,102152.27
2022-12-05T07:02:58.406Z,102148.86
2022-12-05T07:04:02.818Z,102148.86
2022-12-05T07:05:13.035Z,102170.53
2022-12-05T07:06:18.319Z,102148.89
2022-12-05T07:07:25.161Z,102161.02
2022-12-05T07:08:29.775Z,102172.30
2022-12-05T07:09:33.842Z,102174.91
2022-12-05T07:10:37.955Z,102164.48
2022-12-05T07:11:42.052Z,102161.01
2022-12-05T07:12:46.090Z,101954.04
2022-12-05T07:13:50.209Z,102157.66
2022-12-05T07:14:54.346Z,102178.47
2022-12-05T07:15:58.953Z,102166.28
2022-12-05T07:17:03.229Z,102175.86
2022-12-05T07:18:07.288Z,102167.12
2022-12-05T07:19:12.928Z,102115.69
2022-12-05T07:20:17.116Z,102173.28
2022-12-05T07:21:21.307Z,102173.28
2022-12-05T07:22:25.401Z,102157.70
2022-12-05T07:23:29.476Z,102182.09
2022-12-05T07:24:33.565Z,102182.09
2022-12-05T07:25:41.384Z,102172.45
2022-12-05T07:26:45.406Z,102174.19
2022-12-05T07:27:49.309Z,102179.34
2022-12-05T07:28:55.136Z,102175.92
2022-12-05T07:29:59.411Z,102182.03
2022-12-05T07:31:06.169Z,102166.42
2022-12-05T07:32:10.377Z,102165.56
2022-12-05T07:33:15.521Z,102164.69
2022-12-05T07:34:19.569Z,102158.66
2022-12-05T07:35:23.529Z,102158.66
2022-12-05T07:36:27.503Z,102179.42
2022-12-05T07:37:31.461Z,102171.66
2022-12-05T07:38:35.992Z,102180.38
2022-12-05T07:39:40.017Z,102170.85
2022-12-05T07:40:44.062Z,102163.95
2022-12-05T07:41:48.090Z,102174.36
2022-12-05T07:42:52.237Z,102171.75
2022-12-05T07:43:58.060Z,102173.52
2022-12-05T07:45:02.029Z,102177.05
2022-12-05T07:46:07.477Z,102163.11
2022-12-05T07:47:11.504Z,102151.02
2022-12-05T07:48:18.505Z,102159.77
2022-12-05T07:49:21.413Z,102158.03
2022-12-05T07:50:25.462Z,102152.81
2022-12-05T07:51:29.537Z,102154.59
2022-12-05T07:52:33.511Z,102156.34
2022-12-05T07:53:38.945Z,102156.34
2022-12-05T07:54:42.991Z,102138.91
2022-12-05T07:55:47.155Z,102149.34
2022-12-05T07:56:51.173Z,102149.34
2022-12-05T07:57:55.153Z,102144.19
2022-12-05T07:58:59.222Z,102144.19
2022-12-05T08:00:03.590Z,102149.48
2022-12-05T08:01:14.821Z,102146.88
2022-12-05T08:02:18.859Z,102146.88
2022-12-05T08:03:23.011Z,102140.83
2022-12-05T08:04:27.044Z,102136.46
2022-12-05T08:05:30.934Z,102133.84
2022-12-05T08:06:34.988Z,102128.67
2022-12-05T08:07:38.980Z,102129.53
2022-12-05T08:08:43.250Z,102120.81
2022-12-05T08:09:47.222Z,102132.14
2022-12-05T08:10:51.461Z,102120.03
2022-12-05T08:11:56.629Z,102125.27
2022-12-05T08:13:00.654Z,102125.27
2022-12-05T08:14:07.009Z,102138.24
2022-12-05T08:15:11.282Z,102126.96
2022-12-05T08:16:18.176Z,102120.03
2022-12-05T08:17:22.210Z,102118.34
2022-12-05T08:18:27.634Z,102121.86
2022-12-05T08:19:31.858Z,102120.98
2022-12-05T08:20:36.015Z,102113.20
2022-12-05T08:21:40.546Z,102131.48
2022-12-05T08:22:44.598Z,102117.59
2022-12-05T08:23:48.918Z,102122.80
2022-12-05T08:24:56.230Z,102125.41
2022-12-05T08:26:03.717Z,102127.13
2022-12-05T08:27:07.753Z,102127.13
2022-12-05T08:28:11.746Z,102134.05
2022-12-05T08:29:16.631Z,102125.40
2022-12-05T08:30:20.736Z,102124.52
2022-12-05T08:31:27.617Z,102113.28
2022-12-05T08:32:31.696Z,102115.03
2022-12-05T08:33:36.917Z,102112.47
2022-12-05T08:34:40.939Z,102119.42
2022-12-05T08:35:45.188Z,102118.56
2022-12-05T08:36:49.817Z,102115.03
2022-12-05T08:37:53.839Z,102108.11
2022-12-05T08:39:03.810Z,102024.34
2022-12-05T08:40:08.990Z,102102.91
2022-12-05T08:41:16.445Z,102096.83
2022-12-05T08:42:20.413Z,102094.25
2022-12-05T08:43:24.421Z,102102.97
2022-12-05T08:44:28.447Z,102089.05
2022-12-05T08:45:32.467Z,102104.73
2022-12-05T08:46:38.365Z,102101.27
2022-12-05T08:47:42.326Z,102091.70
2022-12-05T08:48:46.267Z,102097.84
2022-12-05T08:49:50.262Z,102101.34
2022-12-05T08:50:54.573Z,102099.57
2022-12-05T08:51:58.617Z,102103.90
2022-12-05T08:53:02.781Z,102090.86
2022-12-05T08:54:07.051Z,102046.33
2022-12-05T08:55:11.009Z,102084.76
2022-12-05T08:56:15.495Z,102090.91
2022-12-05T08:57:19.427Z,102090.03
2022-12-05T08:58:23.371Z,102092.64
2022-12-05T08:59:27.523Z,102092.64
2022-12-05T09:00:31.893Z,102092.62
2022-12-05T09:01:36.433Z,102092.62
2022-12-05T09:02:40.582Z,102077.84
2022-12-05T09:03:48.048Z,102081.33
2022-12-05T09:04:54.219Z,102086.55
2022-12-05T09:06:10.114Z,102090.00
2022-12-05T09:07:14.148Z,102069.15
2022-12-05T09:08:18.253Z,102078.74
2022-12-05T09:09:22.287Z,102071.79
2022-12-05T09:10:27.842Z,102071.75
2022-12-05T09:11:34.962Z,102063.91
2022-12-05T09:12:40.245Z,102074.41
2022-12-05T09:13:44.604Z,102078.77
2022-12-05T09:14:48.556Z,102064.80
2022-12-05T09:15:52.584Z,102054.35
2022-12-05T09:16:56.728Z,102072.66
2022-12-05T09:18:00.713Z,102066.57
2022-12-05T09:19:05.628Z,102066.57
2022-12-05T09:20:10.906Z,102056.96
2022-12-05T09:21:18.260Z,102056.96
2022-12-05T09:22:23.334Z,102057.84
2022-12-05T09:23:27.292Z,102057.84
2022-12-05T09:24:31.322Z,102053.52
2022-12-05T09:25:35.293Z,102056.13
2022-12-05T09:26:39.692Z,102053.51
2022-12-05T09:27:43.726Z,102059.58
2022-12-05T09:28:47.827Z,102050.89
2022-12-05T09:29:51.750Z,102049.15
2022-12-05T09:31:04.545Z,102051.74
2022-12-05T09:32:08.703Z,102044.80
2022-12-05T09:33:12.766Z,102043.94
2022-12-05T09:34:17.002Z,102044.83
2022-12-05T09:35:21.146Z,102034.38
2022-12-05T09:36:28.352Z,102046.55
2022-12-05T09:37:40.301Z,102057.89
2022-12-05T09:38:38.300Z,102032.63
2022-12-05T09:39:45.174Z,102042.20
2022-12-05T09:41:07.276Z,102038.72
2022-12-05T09:42:19.904Z,102035.25
2022-12-05T09:43:26.898Z,102051.80
2022-12-05T09:44:51.868Z,102051.80
2022-12-05T09:45:58.896Z,102048.30
2022-12-05T09:47:12.260Z,102032.63
2022-12-05T09:48:19.322Z,102045.70
2022-12-05T09:49:25.347Z,102045.70
2022-12-05T09:50:44.160Z,102036.98
2022-12-05T09:51:55.223Z,102050.93
2022-12-05T09:53:00.047Z,102042.20
2022-12-05T09:54:04.263Z,102043.09
2022-12-05T09:55:17.021Z,102043.09
2022-12-05T09:56:30.141Z,102039.61
2022-12-05T09:57:39.760Z,102039.59
2022-12-05T09:58:46.395Z,102041.33
2022-12-05T09:59:50.559Z,102054.38
2022-12-05T10:01:06.098Z,102051.76
2022-12-05T10:02:28.001Z,102048.27
2022-12-05T10:03:41.100Z,102048.27
2022-12-05T15:15:30.126Z,101786.15
2022-12-05T15:16:35.705Z,101786.17
2022-12-05T15:17:48.615Z,101786.17
2022-12-05T15:18:58.362Z,101784.44
2022-12-05T15:20:07.221Z,101787.03
2022-12-05T15:21:27.614Z,101786.17
2022-12-05T15:22:34.307Z,101784.44
2022-12-05T15:23:59.183Z,101784.44
2022-12-05T15:25:31.503Z,101782.68
2022-12-05T15:26:51.479Z,101782.68
2022-12-05T15:27:58.397Z,101787.89
2022-12-05T15:29:06.574Z,101790.52
2022-12-05T15:30:17.696Z,101784.44
2022-12-05T15:31:24.484Z,101778.33
2022-12-05T15:32:29.830Z,101779.22
2022-12-05T15:33:35.555Z,101790.52
2022-12-05T15:34:52.901Z,101785.30
2022-12-05T15:35:58.801Z,101781.81
2022-12-05T15:37:14.620Z,101780.95
2022-12-05T15:38:27.476Z,101786.17
2022-12-05T15:39:27.736Z,101781.81
2022-12-05T15:40:36.622Z,101787.05
2022-12-05T15:41:42.130Z,101787.05
2022-12-05T15:44:32.914Z,101786.17
2022-12-05T15:45:40.355Z,101787.91
2022-12-05T15:46:43.327Z,101781.81
2022-12-05T15:47:49.405Z,101786.17
2022-12-05T15:48:57.469Z,101780.10
2022-12-05T15:50:03.201Z,101780.10
2022-12-05T15:51:07.310Z,101783.56
2022-12-05T15:52:32.162Z,101786.17
2022-12-05T15:53:45.094Z,101776.61
2022-12-05T15:54:51.864Z,101781.81
2022-12-05T15:56:02.043Z,101789.64
2022-12-05T15:57:07.515Z,101792.25
2022-12-05T15:58:17.476Z,101792.25
2022-12-05T15:59:35.752Z,101787.93
2022-12-05T16:00:42.873Z,101786.17
2022-12-05T16:01:51.444Z,101786.17
2022-12-05T16:03:03.925Z,101789.66
2022-12-05T16:04:18.892Z,101780.07
2022-12-05T16:05:34.586Z,101778.34
2022-12-05T16:06:41.594Z,101786.15
2022-12-05T16:07:45.687Z,101786.15
2022-12-05T16:08:53.838Z,101785.29
2022-12-05T16:10:07.315Z,101781.83
2022-12-05T16:11:09.766Z,101778.33
2022-12-05T16:12:26.243Z,101779.19
2022-12-05T16:13:30.620Z,101776.58
2022-12-05T16:14:59.047Z,101784.41
2022-12-05T16:15:52.555Z,101823.53
2022-12-05T16:16:58.189Z,101784.41
2022-12-05T16:18:04.640Z,101783.55
2022-12-05T16:19:22.163Z,101780.07
2022-12-05T16:20:32.137Z,101780.07
2022-12-05T16:21:43.409Z,101779.19
2022-12-05T16:23:01.525Z,101775.73
2022-12-05T16:24:29.553Z,101785.27
2022-12-05T16:25:36.502Z,101784.41
2022-12-05T16:26:43.243Z,101776.59
2022-12-05T16:28:12.889Z,101776.59
2022-12-05T16:29:31.723Z,101773.09
2022-12-05T16:30:40.155Z,101780.91
2022-12-05T16:31:45.069Z,101784.38
2022-12-05T16:32:52.440Z,101781.78
2022-12-05T16:34:08.737Z,101781.78
2022-12-05T16:35:36.609Z,101782.64
2022-12-05T16:36:49.637Z,101779.18
2022-12-05T16:38:26.670Z,101780.05
2022-12-05T16:39:32.178Z,101779.17
2022-12-05T16:40:41.495Z,101775.67
2022-12-05T16:41:49.403Z,101774.80
2022-12-05T16:43:04.699Z,101773.92
2022-12-05T16:44:31.356Z,101782.63
2022-12-05T16:45:41.668Z,101776.55
2022-12-05T16:46:47.945Z,101777.41
2022-12-05T16:47:59.306Z,101780.00
2022-12-05T16:49:19.627Z,101780.00
2022-12-05T16:50:29.458Z,101773.92
2022-12-05T16:51:42.142Z,101772.19
2022-12-05T16:52:49.171Z,101772.19
2022-12-05T16:53:58.552Z,101766.96
2022-12-05T16:55:10.678Z,101766.98
2022-12-05T16:57:28.248Z,101766.98
2022-12-05T16:58:36.729Z,101766.98
2022-12-05T16:59:45.423Z,101765.25
2022-12-05T17:00:49.961Z,101763.49
2022-12-05T17:01:57.502Z,101763.49
2022-12-05T17:03:25.675Z,101760.04
2022-12-05T17:04:12.750Z,101756.55
2022-12-05T17:05:17.419Z,101759.14
2022-12-05T17:06:23.099Z,101753.06
2022-12-05T17:07:32.420Z,101761.77
2022-12-05T17:08:32.823Z,101756.55
2022-12-05T17:09:38.499Z,101755.67
2022-12-05T17:10:44.251Z,101755.67
2022-12-05T17:11:52.774Z,101766.98
2022-12-05T17:13:00.457Z,101761.77
2022-12-05T17:14:07.057Z,101763.50
2022-12-05T17:15:15.713Z,101756.55
2022-12-05T17:16:23.318Z,101751.34
2022-12-05T17:17:27.317Z,101760.91
2022-12-05T17:18:33.187Z,101747.85
2022-12-05T17:19:41.973Z,101753.06
2022-12-05T17:20:57.719Z,101754.83
2022-12-05T17:22:12.587Z,101754.81
2022-12-05T17:23:11.930Z,101753.93
2022-12-05T17:24:19.135Z,101748.73
2022-12-05T17:25:28.979Z,101753.08
2022-12-05T17:26:34.498Z,101751.34
2022-12-05T17:27:38.556Z,101753.06
2022-12-05T17:32:42.622Z,101762.63
2022-12-05T17:33:54.167Z,101761.77
2022-12-05T17:35:03.674Z,101767.84
2022-12-05T17:36:02.645Z,101767.84
2022-12-05T17:38:36.688Z,101769.59
2022-12-05T17:53:23.244Z,101746.95
2022-12-05T17:54:28.155Z,101748.66
2022-12-05T17:55:32.209Z,101758.22
2022-12-05T17:57:47.620Z,101752.17
2022-12-05T18:00:14.244Z,101760.88
2022-12-05T18:01:21.111Z,101756.53
2022-12-05T18:02:25.202Z,101766.09
2022-12-05T18:03:29.884Z,101758.28
2022-12-05T18:04:38.818Z,101760.03
2022-12-05T18:05:42.944Z,101756.55
2022-12-05T18:06:48.494Z,101760.05
2022-12-05T18:07:52.562Z,101753.11
2022-12-05T18:08:58.176Z,101753.11
2022-12-05T18:10:08.227Z,101760.91
2022-12-05T18:11:11.275Z,101749.59
2022-12-05T18:12:16.876Z,101749.59
2022-12-05T18:13:23.957Z,101758.32
2022-12-05T18:14:36.282Z,101758.32
2022-12-05T18:15:42.417Z,101763.54
2022-12-05T18:16:42.879Z,101763.54
2022-12-05T18:17:46.853Z,101761.78
2022-12-05T18:18:50.784Z,101761.78
2022-12-05T18:19:55.387Z,101759.19
2022-12-05T18:21:12.510Z,101758.32
2022-12-05T18:22:20.245Z,101754.83
2022-12-05T18:23:23.717Z,101754.83
2022-12-05T18:24:34.835Z,101753.11
2022-12-05T18:25:37.084Z,101756.56